Time;durP1;ratioP1;P1;durP2;ratioP2;P2;SDS_P1;SDS_P2;PMS_P1;PMS_P2;Temp;Humidity;BMP_temperature;BMP_pressure;BME280_temperature;BME280_humidity;BME280_pressure;Samples;Min_cycle;Max_cycle;Signal;HPM_P1;HPM_P2
2023/06/03 00:01:47;;;;;;;4.70;2.90;;;14.90;1.00;;;;;;5056264;28;20841;-82
2023/06/03 00:04:14;;;;;;;10.33;3.90;;;14.80;29.00;;;;;;5055762;28;20518;-81
2023/06/03 00:06:41;;;;;;;6.63;3.70;;;14.80;1.00;;;;;;5056199;28;20490;-82
2023/06/03 00:09:09;;;;;;;9.20;4.13;;;14.80;1.00;;;;;;5056357;28;20581;-81
2023/06/03 00:11:37;;;;;;;5.60;3.30;;;14.70;1.00;;;;;;5056349;28;20831;-81
2023/06/03 00:14:04;;;;;;;8.37;3.40;;;14.70;41.10;;;;;;5055357;28;21155;-82
2023/06/03 00:16:32;;;;;;;6.73;4.00;;;14.70;99.90;;;;;;5056106;28;20451;-80
2023/06/03 00:19:00;;;;;;;7.20;3.67;;;14.70;99.90;;;;;;5056468;28;20837;-82
2023/06/03 00:21:28;;;;;;;6.40;3.87;;;14.60;99.90;;;;;;5058431;28;20458;-83
2023/06/03 00:23:55;;;;;;;6.90;4.27;;;14.60;1.00;;;;;;5060085;28;20481;-84
2023/06/03 00:26:23;;;;;;;8.13;4.00;;;14.60;99.90;;;;;;5060091;28;20451;-81
2023/06/03 00:28:49;;;;;;;6.47;4.07;;;14.50;99.90;;;;;;5060160;28;20991;-83
2023/06/03 00:31:16;;;;;;;7.53;3.67;;;14.50;27.60;;;;;;5061072;28;20463;-82
2023/06/03 00:33:43;;;;;;;7.93;3.47;;;14.50;97.50;;;;;;5059542;28;20449;-82
2023/06/03 00:36:11;;;;;;;7.37;3.60;;;14.40;99.90;;;;;;5060780;28;20507;-81
2023/06/03 00:38:38;;;;;;;6.70;4.00;;;14.40;99.90;;;;;;5060428;28;21061;-82
2023/06/03 00:41:05;;;;;;;10.50;3.67;;;14.40;99.90;;;;;;5060284;28;20450;-81
2023/06/03 00:43:32;;;;;;;5.70;4.13;;;14.30;1.00;;;;;;5059380;28;20480;-83
2023/06/03 00:45:59;;;;;;;12.00;4.37;;;14.20;99.90;;;;;;5060893;28;20454;-82
2023/06/03 00:48:26;;;;;;;12.87;3.97;;;14.20;1.00;;;;;;5060036;28;20577;-81
2023/06/03 00:50:53;;;;;;;7.83;3.67;;;14.20;99.90;;;;;;5059700;28;20446;-83
2023/06/03 00:53:21;;;;;;;7.70;3.50;;;14.20;1.00;;;;;;5060479;28;20909;-81
2023/06/03 00:55:48;;;;;;;9.33;3.63;;;14.20;99.90;;;;;;5059556;28;20530;-83
2023/06/03 00:58:15;;;;;;;9.53;4.40;;;14.20;99.90;;;;;;5059553;28;20466;-81
2023/06/03 01:00:42;;;;;;;10.90;4.10;;;14.30;99.90;;;;;;5060210;28;20549;-81
2023/06/03 01:03:13;;;;;;;9.70;3.97;;;14.20;99.90;;;;;;5059404;28;20456;-82
2023/06/03 01:05:40;;;;;;;15.13;4.00;;;14.20;99.90;;;;;;5060587;28;20939;-81
2023/06/03 01:08:18;;;;;;;7.00;4.27;;;14.20;1.00;;;;;;5059940;28;20578;-81
2023/06/03 01:10:55;;;;;;;9.50;4.10;;;14.20;44.30;;;;;;5060303;28;20451;-81
2023/06/03 01:13:27;;;;;;;8.10;4.53;;;14.20;99.90;;;;;;5060309;28;20809;-81
2023/06/03 01:15:56;;;;;;;7.70;3.73;;;14.10;99.90;;;;;;5059359;28;20440;-83
2023/06/03 01:18:23;;;;;;;10.20;4.30;;;14.10;99.90;;;;;;5060248;28;21020;-81
2023/06/03 01:20:51;;;;;;;5.87;3.00;;;14.10;1.00;;;;;;5058678;28;20515;-82
2023/06/03 01:23:23;;;;;;;7.60;3.83;;;14.00;99.90;;;;;;5058188;28;20806;-82
2023/06/03 01:25:52;;;;;;;6.87;4.00;;;14.00;1.00;;;;;;5059490;28;20450;-82
2023/06/03 01:28:20;;;;;;;7.90;4.10;;;13.90;1.00;;;;;;5060300;28;20497;-81
2023/06/03 01:30:47;;;;;;;6.43;4.60;;;13.90;1.00;;;;;;5060243;28;20506;-81
2023/06/03 01:33:14;;;;;;;8.67;4.27;;;13.90;1.00;;;;;;5057856;28;20444;-84
2023/06/03 01:35:42;;;;;;;9.47;4.93;;;13.90;2.60;;;;;;5060188;28;20444;-82
2023/06/03 01:38:09;;;;;;;8.27;4.20;;;13.90;96.90;;;;;;5058863;28;20468;-81
2023/06/03 01:40:39;;;;;;;8.83;4.20;;;13.90;1.00;;;;;;5059817;28;20457;-83
2023/06/03 01:43:07;;;;;;;7.70;5.37;;;13.80;99.90;;;;;;5058638;28;20831;-83
2023/06/03 01:45:34;;;;;;;7.20;4.60;;;13.80;99.90;;;;;;5059152;28;20825;-81
2023/06/03 01:48:01;;;;;;;7.20;4.10;;;13.80;2.60;;;;;;5058908;28;21020;-81
2023/06/03 01:50:28;;;;;;;7.70;3.80;;;13.80;99.90;;;;;;5059393;28;20446;-82
2023/06/03 01:52:55;;;;;;;8.40;4.20;;;13.70;99.90;;;;;;5058322;28;20479;-82
2023/06/03 01:55:21;;;;;;;8.03;3.80;;;13.70;99.90;;;;;;5059305;28;20955;-82
2023/06/03 01:57:49;;;;;;;7.13;3.83;;;13.70;99.90;;;;;;5059417;28;20474;-81
2023/06/03 02:00:17;;;;;;;7.83;4.70;;;13.70;99.90;;;;;;5059170;28;20528;-81
2023/06/03 02:02:44;;;;;;;9.73;3.70;;;13.70;99.90;;;;;;5058359;28;20462;-83
2023/06/03 02:05:11;;;;;;;7.40;4.33;;;13.70;99.90;;;;;;5059321;28;20456;-84
2023/06/03 02:07:38;;;;;;;5.40;3.33;;;13.60;99.90;;;;;;5058968;28;21031;-82
2023/06/03 02:10:06;;;;;;;8.23;3.73;;;13.60;1.00;;;;;;5059846;28;20449;-82
2023/06/03 02:12:32;;;;;;;8.60;4.30;;;13.60;99.90;;;;;;5058338;28;20453;-81
2023/06/03 02:15:00;;;;;;;6.10;3.67;;;13.60;99.90;;;;;;5059980;28;20992;-84
2023/06/03 02:17:28;;;;;;;7.87;3.90;;;13.60;1.00;;;;;;5058891;28;20535;-84
2023/06/03 02:19:55;;;;;;;10.37;4.07;;;13.60;99.90;;;;;;5057307;28;20545;-82
2023/06/03 02:22:22;;;;;;;6.97;4.13;;;13.60;99.90;;;;;;5058928;28;20464;-82
2023/06/03 02:24:49;;;;;;;6.23;4.20;;;13.60;99.90;;;;;;5058604;28;20944;-82
2023/06/03 02:27:19;;;;;;;6.40;4.00;;;13.60;1.00;;;;;;5058768;28;20470;-83
2023/06/03 02:29:50;;;;;;;6.33;4.00;;;13.60;1.00;;;;;;5059405;28;20555;-84
2023/06/03 02:32:18;;;;;;;6.83;4.33;;;13.50;99.90;;;;;;5059347;28;20462;-81
2023/06/03 02:34:45;;;;;;;6.60;3.70;;;13.50;1.00;;;;;;5058105;28;20443;-83
2023/06/03 02:37:12;;;;;;;5.83;4.40;;;13.40;97.50;;;;;;5058878;28;20465;-82
2023/06/03 02:39:38;;;;;;;5.97;3.97;;;13.40;1.00;;;;;;5058540;28;20451;-82
2023/06/03 02:42:06;;;;;;;6.07;3.60;;;13.40;99.90;;;;;;5059530;28;20454;-82
2023/06/03 02:44:33;;;;;;;6.50;4.37;;;13.40;99.90;;;;;;5057547;28;20502;-82
2023/06/03 02:47:00;;;;;;;7.73;4.10;;;13.40;92.80;;;;;;5059470;28;20527;-83
2023/06/03 02:49:28;;;;;;;7.47;3.70;;;13.30;99.90;;;;;;5060136;28;20498;-82
2023/06/03 02:51:55;;;;;;;7.27;4.40;;;13.30;1.00;;;;;;5060181;28;20936;-84
2023/06/03 02:54:22;;;;;;;7.60;4.77;;;13.20;99.90;;;;;;5064076;28;20452;-84
2023/06/03 02:56:49;;;;;;;5.67;3.93;;;13.10;30.40;;;;;;5066185;28;20444;-85
2023/06/03 02:59:17;;;;;;;6.77;3.93;;;13.10;1.00;;;;;;5075130;28;20431;-80
2023/06/03 03:01:44;;;;;;;7.63;4.70;;;13.00;1.00;;;;;;5075112;28;20430;-81
2023/06/03 03:04:12;;;;;;;7.53;3.70;;;13.00;1.00;;;;;;5062774;28;20476;-82
2023/06/03 03:06:40;;;;;;;11.70;4.60;;;13.00;1.00;;;;;;5058644;28;20461;-81
2023/06/03 03:09:08;;;;;;;6.50;4.47;;;13.00;99.90;;;;;;5056550;28;20483;-83
2023/06/03 03:11:35;;;;;;;6.50;3.83;;;13.00;1.00;;;;;;5056399;28;20456;-81
2023/06/03 03:14:02;;;;;;;6.27;3.80;;;12.90;26.60;;;;;;5055555;28;20490;-81
2023/06/03 03:16:29;;;;;;;6.23;4.40;;;12.90;1.00;;;;;;5057000;28;20468;-81
2023/06/03 03:18:57;;;;;;;9.40;4.03;;;12.90;1.00;;;;;;5056144;28;20465;-83
2023/06/03 03:21:23;;;;;;;6.13;3.80;;;12.80;1.00;;;;;;5055358;28;20461;-83
2023/06/03 03:23:52;;;;;;;7.53;3.60;;;12.90;1.00;;;;;;5055457;28;20455;-82
2023/06/03 03:26:22;;;;;;;7.83;3.20;;;12.80;99.90;;;;;;5056120;28;20454;-83
2023/06/03 03:28:49;;;;;;;5.73;3.50;;;12.80;99.90;;;;;;5056670;28;20495;-82
2023/06/03 03:31:16;;;;;;;6.23;4.03;;;12.80;1.00;;;;;;5055341;28;20968;-80
2023/06/03 03:33:43;;;;;;;7.17;3.47;;;12.70;1.00;;;;;;5061049;28;20477;-82
2023/06/03 03:36:13;;;;;;;5.03;2.80;;;12.80;1.00;;;;;;5070167;28;20515;-82
2023/06/03 03:38:40;;;;;;;7.37;3.80;;;12.80;99.90;;;;;;5069122;28;20472;-84
2023/06/03 03:41:09;;;;;;;7.20;3.50;;;12.80;99.90;;;;;;5066994;28;20529;-83
2023/06/03 03:43:35;;;;;;;5.70;3.70;;;12.80;46.70;;;;;;5057931;28;20506;-84
2023/06/03 03:46:02;;;;;;;5.50;3.20;;;12.80;1.00;;;;;;5058380;28;20459;-83
2023/06/03 03:48:31;;;;;;;6.30;3.47;;;12.80;27.60;;;;;;5057646;28;20559;-84
2023/06/03 03:50:58;;;;;;;9.07;3.90;;;12.70;1.00;;;;;;5057430;28;20955;-82
2023/06/03 03:53:29;;;;;;;4.37;2.87;;;12.70;1.00;;;;;;5057888;28;20455;-83
2023/06/03 03:55:57;;;;;;;5.80;3.20;;;12.80;99.90;;;;;;5057970;28;20445;-82
2023/06/03 03:58:27;;;;;;;7.07;3.03;;;12.70;99.90;;;;;;5058252;28;20471;-83
2023/06/03 04:00:57;;;;;;;5.73;3.40;;;12.70;1.00;;;;;;5057397;28;20443;-84
2023/06/03 04:03:25;;;;;;;3.30;2.53;;;12.70;99.90;;;;;;5057683;28;20448;-85
2023/06/03 04:05:52;;;;;;;7.03;2.73;;;12.60;1.00;;;;;;5057865;28;20493;-83
2023/06/03 04:08:39;;;;;;;5.20;2.57;;;12.70;39.60;;;;;;5057806;28;20494;-82
2023/06/03 04:11:07;;;;;;;5.70;2.67;;;12.70;99.90;;;;;;5057651;28;20458;-83
2023/06/03 04:13:37;;;;;;;5.63;2.80;;;12.70;1.00;;;;;;5057168;28;20462;-83
2023/06/03 04:16:10;;;;;;;6.67;3.53;;;12.70;99.90;;;;;;5058305;28;20964;-83
2023/06/03 04:18:40;;;;;;;4.43;2.70;;;12.70;99.90;;;;;;5057605;28;20463;-82
2023/06/03 04:21:07;;;;;;;4.27;2.70;;;12.70;99.90;;;;;;5056756;28;20452;-83
2023/06/03 04:23:34;;;;;;;4.70;2.50;;;12.70;79.60;;;;;;5057008;28;20461;-82
2023/06/03 04:26:02;;;;;;;6.37;3.33;;;12.80;99.90;;;;;;5058006;28;20455;-83
2023/06/03 04:28:29;;;;;;;5.17;2.47;;;12.80;99.90;;;;;;5056775;28;20520;-84
2023/06/03 04:30:57;;;;;;;5.33;2.63;;;12.80;99.90;;;;;;5057435;28;20452;-82
2023/06/03 04:33:23;;;;;;;5.03;2.57;;;12.90;99.90;;;;;;5056061;28;20461;-83
2023/06/03 04:35:51;;;;;;;3.73;2.30;;;12.80;99.90;;;;;;5056174;28;20894;-82
2023/06/03 04:38:17;;;;;;;4.50;2.27;;;12.80;99.90;;;;;;5057883;28;20467;-82
2023/06/03 04:40:46;;;;;;;6.33;2.67;;;12.90;99.90;;;;;;5057051;28;20444;-82
2023/06/03 04:43:14;;;;;;;4.20;2.50;;;12.90;69.10;;;;;;5056243;28;20451;-82
2023/06/03 04:45:44;;;;;;;5.33;2.50;;;12.90;1.00;;;;;;5057204;28;20447;-83
2023/06/03 04:48:12;;;;;;;4.43;2.00;;;12.90;1.00;;;;;;5057651;28;20486;-82
2023/06/03 04:50:43;;;;;;;5.20;2.60;;;13.00;1.00;;;;;;5056596;28;20543;-82
2023/06/03 04:53:11;;;;;;;3.13;2.07;;;13.00;1.00;;;;;;5055862;28;20436;-81
2023/06/03 04:55:38;;;;;;;5.67;2.20;;;13.10;1.00;;;;;;5056763;28;20570;-82
2023/06/03 04:58:05;;;;;;;5.07;2.50;;;13.20;99.90;;;;;;5056376;28;20809;-82
2023/06/03 05:00:32;;;;;;;3.07;2.17;;;13.30;1.00;;;;;;5055936;28;20966;-82
2023/06/03 05:02:59;;;;;;;7.57;2.53;;;13.30;99.90;;;;;;5055842;28;20464;-81
2023/06/03 05:05:27;;;;;;;3.90;2.07;;;13.40;1.00;;;;;;5055579;28;20471;-82
2023/06/03 05:07:54;;;;;;;3.50;2.10;;;13.40;99.90;;;;;;5058958;28;20485;-82
2023/06/03 05:10:21;;;;;;;6.03;2.50;;;13.40;99.90;;;;;;5059757;28;20487;-82
2023/06/03 05:12:49;;;;;;;5.57;2.33;;;13.40;99.90;;;;;;5059818;28;20546;-82
2023/06/03 05:15:16;;;;;;;5.00;2.23;;;13.50;99.90;;;;;;5060061;28;20477;-82
2023/06/03 05:17:42;;;;;;;5.77;2.03;;;13.50;99.90;;;;;;5060305;28;20554;-83
2023/06/03 05:20:11;;;;;;;3.10;1.53;;;13.50;99.90;;;;;;5058593;28;20463;-82
2023/06/03 05:22:39;;;;;;;4.00;1.77;;;13.60;99.90;;;;;;5058553;28;20465;-82
2023/06/03 05:25:07;;;;;;;3.43;1.87;;;13.60;65.20;;;;;;5059072;28;20459;-81
2023/06/03 05:27:34;;;;;;;3.60;1.53;;;13.70;80.00;;;;;;5058841;28;20463;-83
2023/06/03 05:30:01;;;;;;;3.97;1.53;;;13.70;99.90;;;;;;5059009;28;20489;-82
2023/06/03 05:32:27;;;;;;;2.50;1.60;;;13.80;47.10;;;;;;5058691;28;20481;-81
2023/06/03 05:34:54;;;;;;;4.53;1.87;;;13.80;38.00;;;;;;5059047;28;20456;-82
2023/06/03 05:37:21;;;;;;;4.53;1.87;;;13.70;27.60;;;;;;5059405;28;20497;-82
2023/06/03 05:39:50;;;;;;;4.40;1.80;;;13.70;1.00;;;;;;5058708;28;20834;-82
2023/06/03 05:42:16;;;;;;;3.20;1.80;;;13.70;1.00;;;;;;5058424;28;20458;-81
2023/06/03 05:44:43;;;;;;;3.23;1.77;;;13.80;1.00;;;;;;5059111;28;21115;-81
2023/06/03 05:47:10;;;;;;;4.13;1.80;;;13.80;1.00;;;;;;5058462;28;20473;-82
2023/06/03 05:49:37;;;;;;;3.10;1.33;;;13.80;1.00;;;;;;5059990;28;20491;-82
2023/06/03 05:52:04;;;;;;;2.70;1.60;;;13.90;1.00;;;;;;5070435;28;21135;-81
2023/06/03 05:54:31;;;;;;;4.27;1.67;;;13.90;1.00;;;;;;5070799;28;20447;-82
2023/06/03 05:56:59;;;;;;;2.70;1.40;;;13.90;1.00;;;;;;5071666;28;20493;-82
2023/06/03 05:59:26;;;;;;;2.80;1.50;;;13.90;1.00;;;;;;5071210;28;20453;-82
2023/06/03 06:01:53;;;;;;;3.60;1.37;;;14.00;1.00;;;;;;5071473;28;20515;-82
2023/06/03 06:04:20;;;;;;;2.73;1.27;;;14.00;1.00;;;;;;5071282;28;20467;-82
2023/06/03 06:06:46;;;;;;;4.10;1.50;;;14.10;1.00;;;;;;5071247;28;20896;-83
2023/06/03 06:09:13;;;;;;;4.80;1.50;;;14.10;1.00;;;;;;5071309;28;20487;-81
2023/06/03 06:11:42;;;;;;;2.80;1.70;;;14.20;1.00;;;;;;5070610;28;20481;-82
2023/06/03 06:14:11;;;;;;;2.90;1.43;;;14.10;1.00;;;;;;5070800;28;20506;-82
2023/06/03 06:16:38;;;;;;;2.80;1.40;;;14.20;1.00;;;;;;5071164;28;20535;-81
2023/06/03 06:19:05;;;;;;;4.63;1.60;;;14.30;1.00;;;;;;5068103;28;20470;-81
2023/06/03 06:21:32;;;;;;;2.57;1.30;;;14.30;1.00;;;;;;5071606;28;20466;-82
2023/06/03 06:23:58;;;;;;;3.17;1.40;;;14.40;1.00;;;;;;5072097;28;20450;-82
2023/06/03 06:26:26;;;;;;;2.73;1.10;;;14.40;1.00;;;;;;5075458;28;20476;-83
2023/06/03 06:28:52;;;;;;;3.90;1.70;;;14.50;1.00;;;;;;5074055;28;20471;-82
2023/06/03 06:31:21;;;;;;;4.07;1.40;;;14.50;1.00;;;;;;5069813;28;20874;-81
2023/06/03 06:33:48;;;;;;;4.00;1.50;;;14.40;1.00;;;;;;5068883;28;20506;-82
2023/06/03 06:36:29;;;;;;;4.53;1.10;;;14.50;1.00;;;;;;5069958;28;20512;-80
2023/06/03 06:38:56;;;;;;;2.83;1.20;;;14.50;1.00;;;;;;5069900;28;20468;-82
2023/06/03 06:41:26;;;;;;;3.13;1.00;;;14.60;1.00;;;;;;5070024;28;20519;-81
2023/06/03 06:43:53;;;;;;;3.70;1.10;;;14.60;1.00;;;;;;5069341;28;20525;-81
2023/06/03 06:46:23;;;;;;;2.20;1.20;;;14.70;1.00;;;;;;5069480;28;20473;-81
2023/06/03 06:48:50;;;;;;;5.13;1.80;;;14.70;1.00;;;;;;5068806;28;20486;-81
2023/06/03 06:51:19;;;;;;;7.13;1.50;;;14.80;1.00;;;;;;5070510;28;20487;-82
2023/06/03 06:53:48;;;;;;;2.90;1.17;;;15.00;1.00;;;;;;5069053;28;20482;-80
2023/06/03 06:56:18;;;;;;;2.20;1.30;;;15.10;1.00;;;;;;5070104;28;20471;-81
2023/06/03 06:58:46;;;;;;;2.33;1.23;;;15.20;1.00;;;;;;5069080;28;20471;-82
2023/06/03 07:01:13;;;;;;;2.00;0.97;;;15.30;1.00;;;;;;5069926;28;20503;-80
2023/06/03 07:03:41;;;;;;;3.13;1.30;;;15.30;1.00;;;;;;5067128;28;20462;-82
2023/06/03 07:06:08;;;;;;;3.00;1.23;;;15.40;1.00;;;;;;5066921;28;20452;-82
2023/06/03 07:08:34;;;;;;;2.77;0.97;;;15.50;1.00;;;;;;5066257;28;20560;-80
2023/06/03 07:11:02;;;;;;;6.43;1.30;;;15.50;99.90;;;;;;5066305;28;20479;-81
2023/06/03 07:13:29;;;;;;;4.67;1.27;;;15.60;99.90;;;;;;5066610;28;20446;-81
2023/06/03 07:15:56;;;;;;;3.17;1.10;;;15.60;99.90;;;;;;5068036;28;20553;-79
2023/06/03 07:18:25;;;;;;;3.20;1.03;;;15.60;99.90;;;;;;5067587;28;21012;-80
2023/06/03 07:20:54;;;;;;;3.30;1.07;;;15.60;99.90;;;;;;5064252;28;20513;-80
2023/06/03 07:23:21;;;;;;;3.37;1.37;;;15.70;99.90;;;;;;5067107;28;20467;-81
2023/06/03 07:25:49;;;;;;;2.80;1.20;;;15.80;99.90;;;;;;5068477;28;20451;-81
2023/06/03 07:28:18;;;;;;;5.10;1.13;;;15.90;99.90;;;;;;5067574;28;20464;-81
2023/06/03 07:30:47;;;;;;;2.80;0.93;;;16.00;99.90;;;;;;5066228;28;20483;-81
2023/06/03 07:33:25;;;;;;;5.20;1.30;;;16.00;99.90;;;;;;5067327;28;20452;-79
2023/06/03 07:35:54;;;;;;;2.33;1.00;;;16.10;99.90;;;;;;5066094;28;20437;-80
2023/06/03 07:38:47;;;;;;;2.50;1.00;;;16.20;99.90;;;;;;5064586;28;20510;-79
2023/06/03 07:41:23;;;;;;;3.77;1.00;;;16.40;99.90;;;;;;5066425;28;20528;-81
2023/06/03 07:43:50;;;;;;;5.60;1.10;;;16.50;99.90;;;;;;5065414;28;20510;-81
2023/06/03 07:46:24;;;;;;;5.00;1.30;;;16.50;99.90;;;;;;5066849;28;20479;-82
2023/06/03 07:48:50;;;;;;;3.30;1.20;;;16.60;99.90;;;;;;5064646;28;20562;-80
2023/06/03 07:51:19;;;;;;;3.50;1.20;;;16.70;99.90;;;;;;5065262;28;20495;-80
2023/06/03 07:53:46;;;;;;;2.43;1.13;;;16.70;99.90;;;;;;5063724;28;20523;-81
2023/06/03 07:56:14;;;;;;;4.10;1.13;;;16.80;99.90;;;;;;5065372;28;20536;-80
2023/06/03 07:58:41;;;;;;;3.53;1.20;;;16.90;99.90;;;;;;5065180;28;20563;-81
2023/06/03 08:01:09;;;;;;;3.20;1.20;;;17.10;99.90;;;;;;5065710;28;20888;-80
2023/06/03 08:03:36;;;;;;;3.90;1.40;;;17.20;99.90;;;;;;5065697;28;21018;-80
2023/06/03 08:06:08;;;;;;;2.57;1.20;;;17.30;99.90;;;;;;5065132;28;20480;-80
2023/06/03 08:08:36;;;;;;;6.70;1.00;;;17.40;99.90;;;;;;5065012;28;20476;-80
2023/06/03 08:11:03;;;;;;;2.57;1.00;;;17.50;99.90;;;;;;5066213;28;20679;-80
2023/06/03 08:13:30;;;;;;;2.83;1.30;;;17.60;99.90;;;;;;5064602;28;20486;-81
2023/06/03 08:15:57;;;;;;;3.00;1.00;;;17.70;99.90;;;;;;5065867;28;20533;-80
2023/06/03 08:18:41;;;;;;;3.80;1.20;;;17.70;99.90;;;;;;5065264;28;20565;-80
2023/06/03 08:21:08;;;;;;;2.70;1.20;;;17.80;99.90;;;;;;5062641;28;20433;-81
2023/06/03 08:23:36;;;;;;;5.10;1.30;;;18.00;99.90;;;;;;5063406;28;20541;-80
2023/06/03 08:26:04;;;;;;;3.20;0.90;;;18.10;99.90;;;;;;5065299;28;20487;-80
2023/06/03 08:28:30;;;;;;;3.13;1.30;;;18.40;99.90;;;;;;5064774;28;20482;-81
2023/06/03 08:30:58;;;;;;;5.73;1.57;;;18.60;99.90;;;;;;5065130;28;20527;-81
2023/06/03 08:33:25;;;;;;;2.60;1.17;;;18.70;99.90;;;;;;5064384;28;20595;-80
2023/06/03 08:35:52;;;;;;;3.27;1.00;;;19.00;99.90;;;;;;5065557;28;20478;-81
2023/06/03 08:38:19;;;;;;;2.47;1.30;;;19.10;99.90;;;;;;5066415;28;20562;-81
2023/06/03 08:40:49;;;;;;;4.37;1.30;;;19.20;99.90;;;;;;5065127;28;20554;-81
2023/06/03 08:43:16;;;;;;;2.43;1.03;;;19.40;99.90;;;;;;5068722;28;20453;-81
2023/06/03 08:45:53;;;;;;;3.70;1.17;;;19.60;99.90;;;;;;5068599;28;20538;-81
2023/06/03 08:48:29;;;;;;;3.23;1.00;;;19.80;99.90;;;;;;5068123;28;20488;-82
2023/06/03 08:51:03;;;;;;;2.80;1.37;;;20.00;99.90;;;;;;5068877;28;20479;-81
2023/06/03 08:53:35;;;;;;;3.27;0.93;;;20.30;99.90;;;;;;5068618;28;20451;-81
2023/06/03 08:56:05;;;;;;;2.40;1.00;;;20.80;99.90;;;;;;5069708;28;20486;-81
2023/06/03 08:58:36;;;;;;;3.90;1.00;;;21.30;99.90;;;;;;5070082;28;20468;-81
2023/06/03 09:01:04;;;;;;;2.90;1.23;;;21.70;99.90;;;;;;5070168;28;20443;-81
2023/06/03 09:03:32;;;;;;;2.93;1.10;;;22.20;99.90;;;;;;5069483;28;20546;-82
2023/06/03 09:06:00;;;;;;;1.80;0.90;;;22.40;99.90;;;;;;5070344;28;20452;-82
2023/06/03 09:08:28;;;;;;;3.90;1.00;;;23.10;99.90;;;;;;5069683;28;20459;-80
2023/06/03 09:10:56;;;;;;;2.87;1.23;;;23.40;99.90;;;;;;5068998;28;21101;-80
2023/06/03 09:13:28;;;;;;;4.33;1.40;;;23.40;99.90;;;;;;5067401;28;20501;-81
2023/06/03 09:15:56;;;;;;;2.10;1.00;;;23.70;99.90;;;;;;5069024;28;20474;-82
2023/06/03 09:18:23;;;;;;;5.23;1.20;;;23.30;99.90;;;;;;5070225;28;20478;-82
2023/06/03 09:20:50;;;;;;;4.80;1.40;;;23.70;99.90;;;;;;5065929;28;20458;-81
2023/06/03 09:23:17;;;;;;;3.00;1.27;;;23.50;99.90;;;;;;5061005;28;20451;-81
2023/06/03 09:25:44;;;;;;;2.80;1.10;;;23.30;99.90;;;;;;5061623;28;20452;-82
2023/06/03 09:28:12;;;;;;;3.50;1.30;;;23.50;99.90;;;;;;5061212;28;20480;-80
2023/06/03 09:30:40;;;;;;;3.70;1.30;;;23.40;99.90;;;;;;5059476;28;20484;-81
2023/06/03 09:33:07;;;;;;;2.80;1.17;;;23.30;99.90;;;;;;5058192;28;20454;-81
2023/06/03 09:35:34;;;;;;;3.53;1.20;;;23.20;99.90;;;;;;5058733;28;20452;-80
2023/06/03 09:38:01;;;;;;;6.23;1.30;;;23.20;99.90;;;;;;5058436;28;20475;-82
2023/06/03 09:40:30;;;;;;;2.60;1.40;;;23.20;99.90;;;;;;5058292;28;20509;-80
2023/06/03 09:42:57;;;;;;;3.93;1.83;;;23.00;99.90;;;;;;5057975;28;20448;-80
2023/06/03 09:45:28;;;;;;;2.07;1.00;;;23.00;99.90;;;;;;5058007;28;20451;-81
2023/06/03 09:47:56;;;;;;;2.40;1.20;;;23.20;99.90;;;;;;5058794;28;20471;-81
2023/06/03 09:50:24;;;;;;;5.50;1.27;;;23.20;99.90;;;;;;5065302;28;20480;-82
2023/06/03 09:52:51;;;;;;;3.53;1.60;;;23.20;99.90;;;;;;5065516;28;21065;-80
2023/06/03 09:55:19;;;;;;;3.97;1.40;;;23.20;99.90;;;;;;5067989;28;20468;-79
2023/06/03 09:58:03;;;;;;;3.33;1.20;;;23.30;99.90;;;;;;5056200;28;20475;-81
2023/06/03 10:00:32;;;;;;;3.03;1.37;;;23.50;99.90;;;;;;5056795;28;20924;-80
2023/06/03 10:03:08;;;;;;;3.57;1.50;;;23.60;99.90;;;;;;5055938;28;20454;-80
2023/06/03 10:05:36;;;;;;;2.63;1.20;;;23.80;99.90;;;;;;5057174;28;20893;-80
2023/06/03 10:08:03;;;;;;;3.80;1.27;;;23.90;99.90;;;;;;5056223;28;20476;-79
2023/06/03 10:10:31;;;;;;;3.10;1.17;;;23.80;99.90;;;;;;5056796;28;20483;-82
2023/06/03 10:12:58;;;;;;;2.73;1.40;;;24.00;99.90;;;;;;5055880;28;20454;-79
2023/06/03 10:15:36;;;;;;;4.23;1.23;;;24.20;99.90;;;;;;5056077;28;21090;-79
2023/06/03 10:18:03;;;;;;;3.33;1.00;;;24.20;99.90;;;;;;5057379;28;20621;-80
2023/06/03 10:20:36;;;;;;;5.50;1.23;;;24.30;99.90;;;;;;5055097;28;20458;-82
2023/06/03 10:23:04;;;;;;;2.63;1.60;;;24.40;99.90;;;;;;5056386;28;20479;-80
2023/06/03 10:25:34;;;;;;;3.83;1.63;;;24.70;99.90;;;;;;5056346;28;20458;-80
2023/06/03 10:28:01;;;;;;;2.67;1.10;;;24.80;99.90;;;;;;5059517;28;20522;-82
2023/06/03 10:30:31;;;;;;;2.00;1.10;;;24.80;99.90;;;;;;5058991;28;20494;-80
2023/06/03 10:33:02;;;;;;;6.67;1.30;;;25.00;99.90;;;;;;5056951;28;20463;-82
2023/06/03 10:35:31;;;;;;;3.73;1.30;;;25.20;99.90;;;;;;5057211;28;20445;-82
2023/06/03 10:38:04;;;;;;;3.50;1.40;;;25.10;99.90;;;;;;5057149;28;20886;-81
2023/06/03 10:40:31;;;;;;;2.87;1.20;;;25.50;99.90;;;;;;5056517;28;20455;-82
2023/06/03 10:42:59;;;;;;;4.80;1.90;;;25.80;99.90;;;;;;5059802;28;20452;-80
2023/06/03 10:45:28;;;;;;;4.67;1.30;;;25.60;99.90;;;;;;5059732;28;20451;-82
2023/06/03 10:48:07;;;;;;;2.93;1.47;;;25.90;99.90;;;;;;5083406;22;20869;-81
2023/06/03 10:50:48;;;;;;;4.40;2.07;;;26.20;99.90;;;;;;5075077;28;20532;-81
2023/06/03 10:53:28;;;;;;;5.50;1.80;;;26.40;99.90;;;;;;5055691;28;20824;-80
2023/06/03 10:56:05;;;;;;;4.27;1.40;;;26.60;99.90;;;;;;5055232;28;20456;-80
2023/06/03 10:58:32;;;;;;;3.43;1.30;;;27.00;99.90;;;;;;5055722;28;20918;-82
2023/06/03 11:01:01;;;;;;;1.97;1.27;;;26.90;99.90;;;;;;5054864;28;20450;-80
2023/06/03 11:03:31;;;;;;;6.57;1.30;;;27.10;99.90;;;;;;5054473;28;20449;-81
2023/06/03 11:06:46;;;;;;;2.90;1.33;;;27.10;99.90;;;;;;5056548;28;20459;-81
2023/06/03 11:09:16;;;;;;;3.70;1.30;;;28.30;99.90;;;;;;4995136;28;20470;-81
2023/06/03 11:12:02;;;;;;;5.63;1.40;;;29.30;99.90;;;;;;4994725;28;21018;-83
2023/06/03 11:14:57;;;;;;;5.87;1.50;;;29.70;99.90;;;;;;5029238;28;20542;-82
2023/06/03 11:17:25;;;;;;;4.80;1.50;;;30.10;99.90;;;;;;5055731;28;20944;-81
2023/06/03 11:19:54;;;;;;;3.00;1.47;;;30.20;99.90;;;;;;5053002;28;20455;-80
2023/06/03 11:22:41;;;;;;;3.07;1.30;;;30.50;99.90;;;;;;5054904;28;20440;-78
2023/06/03 11:25:28;;;;;;;2.57;1.50;;;30.60;99.90;;;;;;5055498;28;20823;-82
2023/06/03 11:28:29;;;;;;;4.53;1.40;;;30.80;99.90;;;;;;5054965;28;20471;-81
2023/06/03 11:30:57;;;;;;;2.30;1.33;;;31.10;99.90;;;;;;5054977;28;20513;-82
2023/06/03 11:33:24;;;;;;;2.53;1.47;;;31.40;99.90;;;;;;5054206;28;20502;-81
2023/06/03 11:35:51;;;;;;;4.73;1.10;;;31.20;99.90;;;;;;5055069;28;20808;-80
2023/06/03 11:38:17;;;;;;;4.73;1.40;;;31.50;99.90;;;;;;5054471;28;20562;-82
2023/06/03 11:40:46;;;;;;;4.10;1.00;;;31.70;99.90;;;;;;5055888;28;20834;-81
2023/06/03 11:43:14;;;;;;;2.40;1.27;;;31.50;99.90;;;;;;5054442;28;20456;-82
2023/06/03 11:45:41;;;;;;;2.60;1.20;;;31.50;99.90;;;;;;5056505;28;20505;-81
2023/06/03 11:48:10;;;;;;;3.60;1.60;;;31.60;99.90;;;;;;5055493;28;20472;-82
2023/06/03 11:50:49;;;;;;;3.37;1.60;;;31.90;99.90;;;;;;5055390;28;20489;-82
2023/06/03 11:53:32;;;;;;;2.80;1.33;;;31.70;99.90;;;;;;5055958;28;20435;-82
2023/06/03 11:56:05;;;;;;;4.00;1.67;;;31.80;99.90;;;;;;5055386;28;20463;-81
2023/06/03 11:58:32;;;;;;;3.83;1.77;;;31.80;99.90;;;;;;5056024;28;20519;-81
2023/06/03 12:01:17;;;;;;;2.67;1.50;;;31.50;99.90;;;;;;5055386;28;20952;-83
2023/06/03 12:03:57;;;;;;;3.97;1.73;;;32.10;99.90;;;;;;5054520;28;20459;-83
2023/06/03 12:06:23;;;;;;;4.00;1.47;;;32.10;99.90;;;;;;5056249;28;20439;-81
2023/06/03 12:08:51;;;;;;;3.60;1.40;;;32.40;99.90;;;;;;5055115;28;20859;-80
2023/06/03 12:11:30;;;;;;;4.40;1.87;;;32.40;99.90;;;;;;5054721;28;20519;-83
2023/06/03 12:13:57;;;;;;;3.73;1.27;;;32.30;99.90;;;;;;5054833;28;20486;-82
2023/06/03 12:16:31;;;;;;;6.33;1.60;;;32.10;99.90;;;;;;5054501;28;20962;-81
2023/06/03 12:19:00;;;;;;;2.67;1.30;;;32.20;99.90;;;;;;5055122;28;20996;-82
2023/06/03 12:21:26;;;;;;;3.50;1.20;;;32.10;99.90;;;;;;5054809;28;20534;-81
2023/06/03 12:23:54;;;;;;;3.80;1.50;;;32.20;99.90;;;;;;5057079;28;20452;-81
2023/06/03 12:26:20;;;;;;;3.47;1.40;;;32.20;99.90;;;;;;5057582;28;20444;-83
2023/06/03 12:28:49;;;;;;;3.53;1.13;;;32.40;99.90;;;;;;5058136;28;20555;-83
2023/06/03 12:31:17;;;;;;;2.30;1.07;;;31.90;99.90;;;;;;5057965;28;20866;-81
2023/06/03 12:33:45;;;;;;;2.70;1.30;;;32.10;99.90;;;;;;5059273;28;20476;-82
2023/06/03 12:36:13;;;;;;;2.27;1.30;;;31.90;99.90;;;;;;5061102;28;20460;-82
2023/06/03 12:38:56;;;;;;;2.53;1.30;;;32.00;99.90;;;;;;5060417;28;20476;-81
2023/06/03 12:41:23;;;;;;;3.40;1.17;;;32.30;99.90;;;;;;5060627;28;20466;-82
2023/06/03 12:43:59;;;;;;;2.30;1.50;;;32.10;99.90;;;;;;5059268;28;20484;-80
2023/06/03 12:46:26;;;;;;;2.97;1.40;;;31.80;99.90;;;;;;5058603;28;20512;-82
2023/06/03 12:48:56;;;;;;;6.83;1.40;;;31.80;99.90;;;;;;5058822;28;20556;-82
2023/06/03 12:51:23;;;;;;;5.07;1.70;;;31.60;99.90;;;;;;5059551;28;20987;-81
2023/06/03 12:53:50;;;;;;;2.90;1.40;;;31.70;99.90;;;;;;5059559;28;20462;-83
2023/06/03 12:56:17;;;;;;;2.20;1.17;;;31.90;99.90;;;;;;5060043;28;20484;-83
2023/06/03 12:58:44;;;;;;;2.73;1.13;;;32.00;99.90;;;;;;5062634;28;20515;-83
2023/06/03 13:01:12;;;;;;;6.50;1.47;;;32.10;99.90;;;;;;5064217;28;20444;-84